PAV weather

CLOSED Pavlovich Aviation Airport
Hermosillo, Sonora, Mexico

Public forecast

Using degrees Celsius for public forecast. Weather courtesy of forecast.io.

Closest aviation weather report (METAR) to Pavlovich Aviation Airport

Closest report is General Ignacio P. Garcia International Airport, 5.9 nm (10.9 km) N. Retrieved 2020/06/05 12:46 UTC (1 hour ago):

MMHO 051246Z 00000KT 10SM SCT040 25/12 A2972 RMK 8/400 HZY RTS

Closest aviation forecast (TAF) to Pavlovich Aviation Airport

Forecast is more than 6 hours old.

Closest forecast is General Ignacio P. Garcia International Airport, 5.9 nm (10.9 km) N. Retrieved 2020/06/05 06:43 UTC (7 hours ago):

TAF MMHO 050439Z 0506/0606 24005KT P6SM SKC FM051600 24015KT P6SM SCT200 FM060100 27006KT P6SM SKC